createdAt,value
2023-01-10T00:00:13.938Z,19.75
2023-01-10T00:02:41.062Z,19.05
2023-01-10T00:05:08.463Z,21.45
2023-01-10T00:07:36.761Z,19.97
2023-01-10T00:10:04.033Z,23.33
2023-01-10T00:12:49.348Z,21.02
2023-01-10T00:15:16.389Z,19.52
2023-01-10T00:17:43.448Z,20.13
2023-01-10T00:20:11.307Z,19.17
2023-01-10T00:22:38.381Z,21.38
2023-01-10T00:25:06.042Z,20.35
2023-01-10T00:27:33.042Z,22.30
2023-01-10T00:30:01.696Z,19.52
2023-01-10T00:32:28.643Z,22.50
2023-01-10T00:34:55.594Z,16.90
2023-01-10T00:37:22.913Z,18.52
2023-01-10T00:39:50.123Z,18.52
2023-01-10T00:42:36.404Z,20.33
2023-01-10T00:45:12.000Z,17.90
2023-01-10T00:47:38.983Z,16.00
2023-01-10T00:50:06.578Z,17.27
2023-01-10T00:52:33.687Z,17.05
2023-01-10T00:55:00.835Z,18.30
2023-01-10T00:57:27.850Z,14.90
2023-01-10T00:59:54.829Z,18.65
2023-01-10T01:02:22.240Z,15.93
2023-01-10T01:04:49.402Z,22.17
2023-01-10T01:07:16.569Z,14.20
2023-01-10T01:10:03.833Z,16.93
2023-01-10T01:12:31.041Z,16.73
2023-01-10T01:14:58.305Z,20.10
2023-01-10T01:17:25.382Z,18.17
2023-01-10T01:19:52.382Z,17.33
2023-01-10T01:22:20.097Z,16.93
2023-01-10T01:24:47.191Z,17.52
2023-01-10T01:27:14.235Z,18.08
2023-01-10T01:29:43.303Z,15.85
2023-01-10T01:32:10.633Z,16.55
2023-01-10T01:34:37.884Z,15.43
2023-01-10T01:37:04.903Z,14.65
2023-01-10T01:39:31.981Z,18.08
2023-01-10T01:41:59.214Z,16.33
2023-01-10T01:44:32.615Z,16.33
2023-01-10T01:47:13.035Z,19.40
2023-01-10T01:49:42.781Z,15.75
2023-01-10T01:52:19.236Z,16.67
2023-01-10T01:54:46.962Z,15.63
2023-01-10T01:57:18.295Z,16.58
2023-01-10T01:59:50.016Z,30.50
2023-01-10T02:02:26.027Z,36.88
2023-01-10T02:04:59.727Z,43.50
2023-01-10T02:07:29.604Z,42.33
2023-01-10T02:10:01.553Z,27.00
2023-01-10T02:12:31.328Z,28.60
2023-01-10T02:14:59.871Z,27.13
2023-01-10T02:17:26.866Z,30.10
2023-01-10T02:20:06.426Z,27.60
2023-01-10T02:22:57.887Z,30.55
2023-01-10T02:25:40.813Z,31.37
2023-01-10T02:28:56.026Z,23.77
2023-01-10T02:32:04.618Z,21.15
2023-01-10T02:34:53.207Z,19.05
2023-01-10T02:37:35.304Z,17.13
2023-01-10T02:40:26.992Z,16.40
2023-01-10T02:43:16.413Z,16.67
2023-01-10T02:45:59.182Z,16.77
2023-01-10T02:48:26.336Z,16.42
2023-01-10T02:51:06.789Z,15.38
2023-01-10T02:53:40.012Z,18.43
2023-01-10T02:56:13.029Z,17.52
2023-01-10T02:58:51.311Z,15.73
2023-01-10T03:01:26.480Z,18.17
2023-01-10T03:04:24.628Z,22.23
2023-01-10T03:07:39.095Z,23.33
2023-01-10T03:10:23.387Z,27.40
2023-01-10T03:13:06.017Z,28.55
2023-01-10T03:15:36.918Z,28.42
2023-01-10T03:18:14.572Z,22.65
2023-01-10T03:20:44.816Z,26.17
2023-01-10T03:23:13.544Z,27.15
2023-01-10T03:25:41.620Z,24.70
2023-01-10T03:28:19.228Z,22.05
2023-01-10T03:30:50.035Z,19.60
2023-01-10T03:33:22.960Z,20.60
2023-01-10T03:36:32.303Z,25.75
2023-01-10T03:39:30.582Z,21.85
2023-01-10T03:42:13.199Z,21.42
2023-01-10T03:44:51.886Z,21.70
2023-01-10T03:47:39.154Z,26.37
2023-01-10T03:50:15.015Z,21.45
2023-01-10T03:52:43.971Z,24.45
2023-01-10T03:55:14.225Z,23.83
2023-01-10T03:57:49.099Z,21.45
2023-01-10T04:00:16.995Z,19.20
2023-01-10T04:02:44.620Z,23.60
2023-01-10T04:05:12.379Z,27.17
2023-01-10T04:07:39.945Z,21.20
2023-01-10T04:10:08.397Z,32.20
2023-01-10T04:12:35.502Z,33.77
2023-01-10T04:15:03.202Z,35.85
2023-01-10T04:17:30.200Z,34.38
2023-01-10T04:19:57.173Z,36.15
2023-01-10T04:22:24.247Z,30.77
2023-01-10T04:24:54.703Z,24.70
2023-01-10T04:27:21.637Z,22.95
2023-01-10T04:29:48.954Z,24.23
2023-01-10T04:32:16.055Z,21.35
2023-01-10T04:34:43.134Z,27.27
2023-01-10T04:37:10.111Z,23.13
2023-01-10T04:39:37.138Z,27.45
2023-01-10T04:42:04.196Z,26.35
2023-01-10T04:44:31.143Z,25.30
2023-01-10T04:46:58.246Z,30.55
2023-01-10T04:49:25.202Z,32.00
2023-01-10T04:51:52.203Z,36.88
2023-01-10T04:54:23.312Z,28.95
2023-01-10T04:56:50.514Z,34.58
2023-01-10T04:59:17.630Z,32.17
2023-01-10T05:01:44.889Z,42.53
2023-01-10T05:04:12.438Z,34.08
2023-01-10T05:06:40.458Z,34.63
2023-01-10T05:09:08.502Z,35.35
2023-01-10T05:11:35.754Z,43.10
2023-01-10T05:14:02.868Z,35.87
2023-01-10T05:16:30.207Z,37.20
2023-01-10T05:18:57.272Z,41.22
2023-01-10T05:21:24.460Z,49.65
2023-01-10T05:23:51.397Z,46.55
2023-01-10T05:26:21.276Z,36.83
2023-01-10T05:28:48.545Z,42.80
2023-01-10T05:31:18.015Z,45.65
2023-01-10T05:33:49.741Z,42.30
2023-01-10T05:36:18.124Z,40.80
2023-01-10T05:38:45.447Z,42.03
2023-01-10T05:41:12.409Z,56.00
2023-01-10T05:43:39.384Z,39.17
2023-01-10T05:46:06.485Z,39.88
2023-01-10T05:48:33.534Z,55.63
2023-01-10T05:51:00.647Z,38.83
2023-01-10T05:53:27.674Z,43.35
2023-01-10T05:56:02.296Z,45.30
2023-01-10T05:58:30.216Z,50.85
2023-01-10T06:00:58.192Z,56.92
2023-01-10T06:03:26.782Z,44.73
2023-01-10T06:05:55.046Z,55.92
2023-01-10T06:08:22.519Z,53.72
2023-01-10T06:10:49.998Z,65.40
2023-01-10T06:13:17.502Z,44.88
2023-01-10T06:15:44.558Z,47.57
2023-01-10T06:18:12.512Z,51.55
2023-01-10T06:20:40.675Z,44.75
2023-01-10T06:23:07.917Z,54.83
2023-01-10T06:25:37.201Z,64.68
2023-01-10T06:28:04.451Z,76.47
2023-01-10T06:30:31.493Z,78.43
2023-01-10T06:33:03.195Z,83.95
2023-01-10T06:35:31.138Z,78.43
2023-01-10T06:37:58.747Z,103.47
2023-01-10T06:40:27.288Z,83.73
2023-01-10T06:42:54.420Z,89.40
2023-01-10T06:45:21.790Z,90.25
2023-01-10T06:47:48.932Z,82.85
2023-01-10T06:50:16.087Z,87.68
2023-01-10T06:52:43.195Z,100.23
2023-01-10T06:55:10.329Z,75.57
2023-01-10T06:57:38.642Z,89.50
2023-01-10T07:00:07.829Z,95.72
2023-01-10T07:02:34.874Z,75.60
2023-01-10T07:05:02.094Z,71.57
2023-01-10T07:07:29.165Z,58.72
2023-01-10T07:09:56.329Z,40.97
2023-01-10T07:12:23.281Z,38.15
2023-01-10T07:14:50.243Z,34.38
2023-01-10T07:17:17.309Z,40.63
2023-01-10T07:19:44.294Z,39.15
2023-01-10T07:22:13.164Z,61.20
2023-01-10T07:24:40.181Z,58.53
2023-01-10T07:27:07.247Z,56.97
2023-01-10T07:29:34.193Z,24.87
2023-01-10T07:32:01.354Z,24.15
2023-01-10T07:34:28.313Z,24.05
2023-01-10T07:36:55.296Z,24.25
2023-01-10T07:39:22.251Z,26.88
2023-01-10T07:41:50.360Z,24.23
2023-01-10T07:44:17.325Z,29.95
2023-01-10T07:46:44.298Z,26.17
2023-01-10T07:49:11.288Z,21.58
2023-01-10T07:51:38.231Z,19.05
2023-01-10T07:54:05.249Z,31.23
2023-01-10T07:56:32.811Z,25.42
2023-01-10T07:59:01.437Z,27.05
2023-01-10T08:01:29.793Z,21.25
2023-01-10T08:03:58.446Z,17.10
2023-01-10T08:06:25.531Z,22.93
2023-01-10T08:08:52.496Z,24.25
2023-01-10T08:11:19.520Z,20.33
2023-01-10T08:13:46.477Z,26.52
2023-01-10T08:16:15.313Z,20.67
2023-01-10T08:18:43.419Z,23.33
2023-01-10T08:21:10.589Z,27.38
2023-01-10T08:23:37.973Z,27.52
2023-01-10T08:26:05.952Z,22.05
2023-01-10T08:28:33.043Z,24.20
2023-01-10T08:31:09.253Z,20.93
2023-01-10T08:33:40.527Z,20.45
2023-01-10T08:36:18.135Z,13.45
2023-01-10T08:38:45.449Z,14.98
2023-01-10T08:41:13.737Z,18.85
2023-01-10T08:43:41.046Z,10.13
2023-01-10T08:46:08.533Z,9.10
2023-01-10T08:48:35.727Z,12.00
2023-01-10T08:51:10.274Z,13.60
2023-01-10T08:53:39.769Z,13.85
2023-01-10T08:56:07.161Z,13.07
2023-01-10T08:58:34.198Z,9.20
2023-01-10T09:01:12.730Z,12.65
2023-01-10T09:03:40.095Z,11.98
2023-01-10T09:06:08.551Z,16.35
2023-01-10T09:08:36.170Z,19.03
2023-01-10T09:11:03.575Z,17.88
2023-01-10T09:13:31.282Z,19.60
2023-01-10T09:15:58.898Z,29.25
2023-01-10T09:18:26.559Z,16.85
2023-01-10T09:20:53.897Z,14.03
2023-01-10T09:23:23.035Z,11.13
2023-01-10T09:25:52.402Z,11.68
2023-01-10T09:28:20.623Z,11.20
2023-01-10T09:30:48.369Z,11.68
2023-01-10T09:33:15.585Z,11.83
2023-01-10T09:35:43.577Z,10.50
2023-01-10T09:38:16.508Z,15.48
2023-01-10T09:41:05.349Z,22.20
2023-01-10T09:43:50.491Z,18.23
2023-01-10T09:46:35.526Z,17.90
2023-01-10T09:49:21.222Z,16.98
2023-01-10T09:51:53.319Z,32.50
2023-01-10T09:54:33.454Z,28.50
2023-01-10T09:57:01.787Z,26.00
2023-01-10T09:59:37.771Z,28.90
2023-01-10T10:02:21.369Z,29.00
2023-01-10T10:04:59.453Z,24.70
2023-01-10T10:07:26.478Z,23.67
2023-01-10T10:09:53.461Z,21.13
2023-01-10T10:12:47.016Z,35.90
2023-01-10T10:15:35.180Z,20.88
2023-01-10T10:18:36.918Z,20.85
2023-01-10T10:21:22.659Z,23.20
2023-01-10T10:23:58.683Z,24.85
2023-01-10T10:26:56.476Z,30.77
2023-01-10T10:29:42.042Z,35.70
2023-01-10T10:32:26.824Z,36.47
2023-01-10T10:35:07.951Z,28.80
2023-01-10T10:37:45.478Z,31.27
2023-01-10T10:40:23.456Z,30.07
2023-01-10T10:42:53.556Z,31.35
2023-01-10T10:45:47.696Z,39.75
2023-01-10T10:48:38.281Z,30.45
2023-01-10T10:51:20.065Z,30.00
2023-01-10T10:53:48.600Z,34.77
2023-01-10T10:56:19.897Z,40.05
2023-01-10T10:58:50.282Z,38.65
2023-01-10T11:01:18.923Z,26.33
2023-01-10T13:39:58.078Z,45.25
2023-01-10T13:42:52.979Z,43.15
2023-01-10T13:45:20.019Z,41.45
2023-01-10T13:47:54.702Z,41.72
2023-01-10T13:50:46.645Z,44.70
2023-01-10T13:53:14.824Z,50.72
2023-01-10T13:55:53.727Z,46.13
2023-01-10T18:56:44.669Z,70.75
2023-01-10T18:59:11.717Z,84.07
2023-01-10T19:01:38.823Z,77.40
2023-01-10T19:04:05.802Z,75.87
2023-01-10T19:06:32.913Z,70.90
2023-01-10T19:09:00.092Z,68.18
2023-01-10T19:11:27.136Z,59.67
2023-01-10T19:13:54.267Z,59.95
